createdAt,value
2024-03-07T00:01:08.954Z,7.54
2024-03-07T00:03:37.158Z,7.54
2024-03-07T00:06:05.359Z,7.54
2024-03-07T00:08:33.951Z,7.56
2024-03-07T00:11:02.608Z,7.54
2024-03-07T00:13:30.653Z,7.53
2024-03-07T00:15:58.991Z,7.54
2024-03-07T00:18:27.825Z,7.54
2024-03-07T00:20:56.137Z,7.51
2024-03-07T00:23:24.488Z,7.47
2024-03-07T00:25:52.743Z,7.49
2024-03-07T00:28:21.121Z,7.44
2024-03-07T00:30:49.365Z,7.41
2024-03-07T00:33:17.622Z,7.40
2024-03-07T00:35:46.020Z,7.42
2024-03-07T00:38:14.190Z,7.43
2024-03-07T00:40:42.447Z,7.42
2024-03-07T00:43:10.449Z,7.41
2024-03-07T00:45:38.439Z,7.40
2024-03-07T00:48:06.716Z,7.40
2024-03-07T00:50:35.075Z,7.39
2024-03-07T00:53:03.354Z,7.37
2024-03-07T00:55:31.328Z,7.37
2024-03-07T00:57:59.609Z,7.39
2024-03-07T01:00:29.517Z,7.39
2024-03-07T01:02:58.259Z,7.39
2024-03-07T01:05:26.572Z,7.33
2024-03-07T01:07:55.676Z,7.30
2024-03-07T01:10:23.708Z,7.26
2024-03-07T01:12:52.646Z,7.25
2024-03-07T01:15:20.633Z,7.28
2024-03-07T01:17:49.046Z,7.30
2024-03-07T01:20:17.298Z,7.30
2024-03-07T01:22:45.211Z,7.32
2024-03-07T01:25:13.805Z,7.32
2024-03-07T01:27:41.893Z,7.32
2024-03-07T01:30:10.460Z,7.30
2024-03-07T01:32:38.509Z,7.30
2024-03-07T01:35:10.824Z,7.30
2024-03-07T01:37:38.829Z,7.30
2024-03-07T01:40:07.901Z,7.31
2024-03-07T01:42:36.696Z,7.35
2024-03-07T01:45:05.224Z,7.37
2024-03-07T01:47:33.250Z,7.36
2024-03-07T01:50:01.836Z,7.36
2024-03-07T01:52:31.217Z,7.37
2024-03-07T01:54:59.740Z,7.38
2024-03-07T01:57:29.738Z,7.39
2024-03-07T01:59:58.249Z,7.39
2024-03-07T02:02:26.477Z,7.38
2024-03-07T02:04:54.440Z,7.39
2024-03-07T02:07:22.612Z,7.41
2024-03-07T02:09:50.986Z,7.45
2024-03-07T02:12:19.020Z,7.52
2024-03-07T02:14:47.038Z,7.51
2024-03-07T02:17:15.955Z,7.51
2024-03-07T02:19:43.930Z,7.50
2024-03-07T02:22:11.787Z,7.49
2024-03-07T02:24:39.905Z,7.50
2024-03-07T02:27:09.044Z,7.45
2024-03-07T02:29:37.391Z,7.41
2024-03-07T02:32:05.666Z,7.41
2024-03-07T02:34:33.766Z,7.44
2024-03-07T02:37:01.681Z,7.43
2024-03-07T02:39:29.834Z,7.41
2024-03-07T02:41:57.984Z,7.39
2024-03-07T02:44:25.917Z,7.38
2024-03-07T02:46:53.936Z,7.41
2024-03-07T02:49:22.445Z,7.41
2024-03-07T02:51:51.119Z,7.44
2024-03-07T02:54:19.193Z,7.41
2024-03-07T02:56:47.650Z,7.36
2024-03-07T02:59:15.802Z,7.34
2024-03-07T03:01:44.088Z,7.32
2024-03-07T03:04:12.131Z,7.32
2024-03-07T03:06:39.984Z,7.32
2024-03-07T03:09:07.931Z,7.25
2024-03-07T03:11:35.993Z,7.18
2024-03-07T03:14:05.059Z,7.10
2024-03-07T03:16:43.668Z,7.09
2024-03-07T03:19:16.628Z,7.05
2024-03-07T03:21:44.910Z,7.01
2024-03-07T03:24:12.999Z,6.98
2024-03-07T03:26:43.432Z,6.97
2024-03-07T03:29:13.112Z,6.95
2024-03-07T03:31:41.503Z,6.93
2024-03-07T03:34:11.246Z,6.91
2024-03-07T03:36:39.865Z,6.87
2024-03-07T03:39:08.397Z,6.85
2024-03-07T03:41:36.771Z,6.84
2024-03-07T03:44:05.117Z,6.84
2024-03-07T03:46:33.304Z,6.81
2024-03-07T03:49:01.509Z,6.79
2024-03-07T03:51:29.751Z,6.81
2024-03-07T03:53:57.899Z,6.79
2024-03-07T03:56:26.186Z,6.79
2024-03-07T03:58:54.523Z,6.75
2024-03-07T04:01:22.543Z,6.73
2024-03-07T04:03:50.586Z,6.69
2024-03-07T04:06:20.355Z,6.66
2024-03-07T04:08:48.572Z,6.62
2024-03-07T04:11:16.718Z,6.57
2024-03-07T04:13:47.078Z,6.52
2024-03-07T04:16:15.614Z,6.53
2024-03-07T04:18:43.702Z,6.53
2024-03-07T04:21:11.659Z,6.56
2024-03-07T04:23:41.725Z,6.56
2024-03-07T04:26:10.000Z,6.57
2024-03-07T04:28:38.017Z,6.55
2024-03-07T04:31:05.943Z,6.55
2024-03-07T04:33:33.989Z,6.56
2024-03-07T04:36:04.245Z,6.59
2024-03-07T04:38:32.737Z,6.60
2024-03-07T04:41:00.792Z,6.61
2024-03-07T04:43:29.407Z,6.58
2024-03-07T04:45:57.563Z,6.60
2024-03-07T04:48:25.679Z,6.60
2024-03-07T04:50:53.953Z,6.58
2024-03-07T04:53:22.129Z,6.56
2024-03-07T04:55:50.345Z,6.56
2024-03-07T04:58:19.427Z,6.56
2024-03-07T05:00:47.589Z,6.59
2024-03-07T05:03:15.717Z,6.56
2024-03-07T05:05:43.920Z,6.56
2024-03-07T05:08:13.308Z,6.53
2024-03-07T05:10:42.710Z,6.55
2024-03-07T05:13:11.984Z,6.54
2024-03-07T05:15:41.033Z,6.55
2024-03-07T05:18:09.576Z,6.56
2024-03-07T05:20:37.909Z,6.54
2024-03-07T05:23:06.906Z,6.58
2024-03-07T05:25:35.470Z,6.62
2024-03-07T05:28:05.294Z,6.64
2024-03-07T05:30:37.188Z,6.69
2024-03-07T05:33:06.138Z,6.73
2024-03-07T05:35:34.270Z,6.74
2024-03-07T05:38:06.097Z,6.76
2024-03-07T05:40:34.384Z,6.78
2024-03-07T05:43:02.433Z,6.81
2024-03-07T05:45:30.511Z,6.85
2024-03-07T05:48:00.021Z,6.91
2024-03-07T05:50:30.750Z,6.96
2024-03-07T05:52:58.677Z,6.95
2024-03-07T05:55:26.833Z,6.98
2024-03-07T05:57:54.829Z,7.01
2024-03-07T06:00:30.415Z,7.02
2024-03-07T06:02:58.812Z,7.02
2024-03-07T06:05:28.270Z,7.05
2024-03-07T06:07:57.929Z,7.07
2024-03-07T06:10:26.315Z,7.10
2024-03-07T06:13:05.258Z,7.12
2024-03-07T06:15:44.060Z,7.17
2024-03-07T06:18:12.803Z,7.17
2024-03-07T06:20:42.538Z,7.17
2024-03-07T06:23:13.405Z,7.22
2024-03-07T06:25:49.151Z,7.23
2024-03-07T06:28:18.970Z,7.23
2024-03-07T06:30:48.016Z,7.22
2024-03-07T06:33:17.979Z,7.21
2024-03-07T06:35:46.498Z,7.23
2024-03-07T06:38:15.038Z,7.24
2024-03-07T06:40:46.110Z,7.25
2024-03-07T06:43:15.247Z,7.28
2024-03-07T06:45:43.399Z,7.28
2024-03-07T06:48:11.916Z,7.28
2024-03-07T06:50:40.358Z,7.28
2024-03-07T06:53:09.497Z,7.30
2024-03-07T06:55:39.542Z,7.35
2024-03-07T06:58:08.047Z,7.36
2024-03-07T07:00:38.388Z,7.38
2024-03-07T07:03:07.952Z,7.41
2024-03-07T07:05:37.578Z,7.42
2024-03-07T07:08:06.133Z,7.43
2024-03-07T07:10:34.519Z,7.44
2024-03-07T07:13:02.619Z,7.43
2024-03-07T07:15:31.094Z,7.45
2024-03-07T07:17:59.655Z,7.51
2024-03-07T07:20:28.637Z,7.57
2024-03-07T07:22:59.261Z,7.54
2024-03-07T07:25:28.465Z,7.54
2024-03-07T07:27:56.753Z,7.57
2024-03-07T07:30:25.308Z,7.62
2024-03-07T07:32:55.069Z,7.61
2024-03-07T07:35:24.226Z,7.63
2024-03-07T07:37:55.112Z,7.68
2024-03-07T07:40:25.595Z,7.69
2024-03-07T07:42:54.515Z,7.69
2024-03-07T07:45:24.398Z,7.69
2024-03-07T07:47:57.137Z,7.70
2024-03-07T07:50:25.980Z,7.70
2024-03-07T07:52:57.206Z,7.74
2024-03-07T07:55:27.926Z,7.76
2024-03-07T07:58:00.509Z,7.79
2024-03-07T08:00:38.392Z,7.81
2024-03-07T08:03:07.501Z,7.84
2024-03-07T08:05:37.528Z,7.90
2024-03-07T08:08:12.109Z,7.96
2024-03-07T08:10:44.684Z,7.96
2024-03-07T08:13:14.682Z,7.96
2024-03-07T08:15:43.879Z,7.98
2024-03-07T08:18:13.320Z,8.01
2024-03-07T08:20:42.900Z,8.05
2024-03-07T08:23:11.681Z,8.05
2024-03-07T08:25:42.042Z,8.07
2024-03-07T08:28:11.357Z,8.08
2024-03-07T08:30:39.421Z,8.06
2024-03-07T08:33:08.886Z,8.04
2024-03-07T08:35:37.652Z,7.99
2024-03-07T08:38:06.286Z,7.96
2024-03-07T08:40:35.704Z,7.97
2024-03-07T08:43:07.162Z,8.04
2024-03-07T08:45:36.248Z,8.07
2024-03-07T08:48:06.148Z,8.13
2024-03-07T08:50:35.943Z,8.22
2024-03-07T08:53:05.798Z,8.24
2024-03-07T08:55:37.612Z,8.22
2024-03-07T08:58:09.975Z,8.24
2024-03-07T09:00:39.980Z,8.25
2024-03-07T09:03:13.543Z,8.26
2024-03-07T09:05:43.332Z,8.25
2024-03-07T09:08:11.613Z,8.26
2024-03-07T09:10:42.403Z,8.29
2024-03-07T09:13:12.383Z,8.30
2024-03-07T09:15:40.856Z,8.34
2024-03-07T09:18:10.128Z,8.37
2024-03-07T09:20:42.796Z,8.38
2024-03-07T09:23:11.004Z,8.42
2024-03-07T09:25:41.072Z,8.46
2024-03-07T09:28:09.200Z,8.55
2024-03-07T09:30:39.985Z,8.59
2024-03-07T09:33:12.252Z,8.62
2024-03-07T09:35:40.828Z,8.64
2024-03-07T09:38:08.936Z,8.67
2024-03-07T09:40:40.068Z,8.68
2024-03-07T09:43:11.703Z,8.68
2024-03-07T09:45:42.294Z,8.70
2024-03-07T09:48:11.798Z,8.71
2024-03-07T09:50:41.965Z,8.73
2024-03-07T09:53:10.730Z,8.81
2024-03-07T09:55:38.915Z,8.84
2024-03-07T09:58:12.946Z,8.86
2024-03-07T10:00:41.851Z,8.88
2024-03-07T10:03:17.310Z,8.90
2024-03-07T10:05:45.778Z,8.91
2024-03-07T10:08:15.201Z,8.94
2024-03-07T10:10:48.876Z,8.99
2024-03-07T10:13:18.616Z,9.04
2024-03-07T10:15:46.896Z,9.06
2024-03-07T10:18:16.109Z,9.09
2024-03-07T10:20:45.952Z,9.08
2024-03-07T10:23:20.892Z,9.03
2024-03-07T10:25:49.179Z,9.04
2024-03-07T10:28:19.146Z,9.04
2024-03-07T10:30:48.789Z,9.03
2024-03-07T10:33:18.450Z,9.03
2024-03-07T10:35:51.069Z,8.98
2024-03-07T10:38:20.606Z,8.94
2024-03-07T10:40:55.411Z,8.82
2024-03-07T10:43:23.679Z,8.75
2024-03-07T10:45:57.406Z,8.71
2024-03-07T10:48:39.854Z,8.62
2024-03-07T10:51:23.297Z,8.56
2024-03-07T10:54:06.917Z,8.55
2024-03-07T10:56:43.907Z,8.50
2024-03-07T10:59:26.821Z,8.47
2024-03-07T11:02:13.844Z,8.46
2024-03-07T11:04:42.348Z,8.46
2024-03-07T11:07:14.283Z,8.50
2024-03-07T11:09:47.161Z,8.49
2024-03-07T11:12:16.560Z,8.47
2024-03-07T11:14:47.693Z,8.45
2024-03-07T11:17:16.865Z,8.41
2024-03-07T11:19:46.926Z,8.40
2024-03-07T11:22:36.137Z,8.40
2024-03-07T11:25:11.661Z,8.34
2024-03-07T11:27:40.831Z,8.28
2024-03-07T11:30:11.223Z,8.24
2024-03-07T11:32:40.365Z,8.24
2024-03-07T11:35:23.647Z,8.24
2024-03-07T11:37:53.254Z,8.26
2024-03-07T11:40:21.333Z,8.28
2024-03-07T11:42:50.362Z,8.28
2024-03-07T11:45:26.606Z,8.30
2024-03-07T11:48:01.491Z,8.33
2024-03-07T11:50:30.769Z,8.38
2024-03-07T11:52:58.912Z,8.44
2024-03-07T11:55:29.840Z,8.47
2024-03-07T11:57:57.998Z,8.56
2024-03-07T12:00:26.660Z,8.61
2024-03-07T12:02:55.730Z,8.64
2024-03-07T12:05:23.896Z,8.65
2024-03-07T12:07:52.022Z,8.69
2024-03-07T12:10:26.221Z,8.70
2024-03-07T12:12:57.688Z,8.73
2024-03-07T12:15:25.832Z,8.75
2024-03-07T12:17:57.742Z,8.79
2024-03-07T12:20:26.780Z,8.82
2024-03-07T12:23:04.041Z,8.84
2024-03-07T12:25:34.417Z,8.80
2024-03-07T12:28:13.436Z,8.78
2024-03-07T12:30:47.364Z,8.74
2024-03-07T12:33:15.589Z,8.76
2024-03-07T12:35:53.138Z,8.75
2024-03-07T12:38:24.040Z,8.76
2024-03-07T12:41:09.911Z,8.76
2024-03-07T12:43:43.592Z,8.73
2024-03-07T12:46:16.794Z,8.74
2024-03-07T12:48:50.772Z,8.76
2024-03-07T12:51:20.752Z,8.80
2024-03-07T12:53:50.043Z,8.82
2024-03-07T12:56:21.730Z,8.81
2024-03-07T12:58:51.656Z,8.79
2024-03-07T13:01:22.097Z,8.75
2024-03-07T13:03:50.747Z,8.73
2024-03-07T13:06:27.396Z,8.71
2024-03-07T13:08:57.989Z,8.68
2024-03-07T13:11:31.273Z,8.68
2024-03-07T13:13:59.896Z,8.66
2024-03-07T13:16:30.641Z,8.65
2024-03-07T13:19:01.039Z,8.63
2024-03-07T13:21:31.613Z,8.61
2024-03-07T13:24:01.589Z,8.62
2024-03-07T13:26:33.100Z,8.64
2024-03-07T13:29:02.980Z,8.65
2024-03-07T13:31:31.399Z,8.66
2024-03-07T13:34:02.930Z,8.66
2024-03-07T13:36:31.478Z,8.65
2024-03-07T13:39:00.581Z,8.64
2024-03-07T13:41:29.814Z,8.65
2024-03-07T13:44:01.171Z,8.66
2024-03-07T13:46:30.428Z,8.64
2024-03-07T13:49:08.190Z,8.62
2024-03-07T13:51:37.112Z,8.60
2024-03-07T13:54:31.724Z,8.60
2024-03-07T13:57:21.144Z,8.52
2024-03-07T14:00:16.990Z,8.51
2024-03-07T14:03:14.639Z,8.53
2024-03-07T14:05:42.855Z,8.52
2024-03-07T14:08:29.569Z,8.56
2024-03-07T14:11:20.526Z,8.53
2024-03-07T14:14:08.531Z,8.50
2024-03-07T14:17:14.495Z,8.49
2024-03-07T14:20:01.048Z,8.44
2024-03-07T14:22:54.267Z,8.39
2024-03-07T14:25:45.187Z,8.35
2024-03-07T14:28:18.252Z,8.34
2024-03-07T14:30:55.748Z,8.34
2024-03-07T14:33:55.828Z,8.32
2024-03-07T14:36:52.006Z,8.30
2024-03-07T14:39:27.176Z,8.27
2024-03-07T14:42:02.350Z,8.27
2024-03-07T14:44:32.719Z,8.26
2024-03-07T14:47:08.142Z,8.25
2024-03-07T14:49:37.514Z,8.22
2024-03-07T14:52:11.962Z,8.27
2024-03-07T14:54:41.650Z,8.25
2024-03-07T14:57:13.090Z,8.24
2024-03-07T14:59:42.685Z,8.21
2024-03-07T15:02:15.305Z,8.22
2024-03-07T15:04:44.483Z,8.22
2024-03-07T15:07:12.840Z,8.19
2024-03-07T15:09:40.955Z,8.22
2024-03-07T15:12:10.399Z,8.20
2024-03-07T15:14:40.973Z,8.20
2024-03-07T15:17:10.189Z,8.17
2024-03-07T15:19:38.410Z,8.15
2024-03-07T15:22:07.071Z,8.13
2024-03-07T15:24:38.125Z,8.14
2024-03-07T15:27:07.507Z,8.13
2024-03-07T15:29:37.947Z,8.14
2024-03-07T15:32:09.480Z,8.12
2024-03-07T15:34:39.173Z,8.11
2024-03-07T15:37:09.052Z,8.14
2024-03-07T15:39:40.124Z,8.15
2024-03-07T15:42:10.467Z,8.12
2024-03-07T15:44:40.897Z,8.08
2024-03-07T15:47:09.651Z,8.06
2024-03-07T15:49:41.962Z,8.06
2024-03-07T15:52:10.851Z,8.06
2024-03-07T15:54:39.117Z,8.05
2024-03-07T15:57:07.700Z,8.04
2024-03-07T15:59:36.508Z,8.02
2024-03-07T16:02:06.074Z,8.02
2024-03-07T16:04:35.463Z,8.02
2024-03-07T16:07:04.784Z,8.03
2024-03-07T16:09:33.059Z,8.03
2024-03-07T16:12:02.959Z,8.02
2024-03-07T16:14:31.957Z,8.02
2024-03-07T16:17:00.236Z,8.01
2024-03-07T16:19:28.384Z,8.02
2024-03-07T16:21:56.646Z,8.04
2024-03-07T16:24:24.982Z,8.07
2024-03-07T16:26:53.254Z,8.05
2024-03-07T16:29:21.451Z,8.03
2024-03-07T16:31:51.937Z,8.02
2024-03-07T16:34:22.631Z,8.02
2024-03-07T16:36:55.048Z,8.03
2024-03-07T16:39:25.721Z,8.06
2024-03-07T16:41:54.539Z,8.04
2024-03-07T16:44:23.837Z,8.01
2024-03-07T16:46:52.131Z,7.99
2024-03-07T16:49:20.296Z,7.95
2024-03-07T16:51:48.409Z,7.95
2024-03-07T16:54:17.078Z,7.95
2024-03-07T16:56:45.170Z,7.95
2024-03-07T16:59:13.229Z,7.95
2024-03-07T17:01:45.911Z,7.96
2024-03-07T17:04:14.326Z,7.97
2024-03-07T17:06:42.724Z,7.93
2024-03-07T17:09:20.816Z,7.91
2024-03-07T17:11:49.678Z,7.90
2024-03-07T17:14:17.801Z,7.90
2024-03-07T17:16:48.841Z,7.89
2024-03-07T17:19:19.084Z,7.89
2024-03-07T17:21:47.169Z,7.92
2024-03-07T17:24:20.427Z,7.94
2024-03-07T17:26:49.614Z,7.94
2024-03-07T17:29:17.791Z,7.94
2024-03-07T17:31:47.500Z,7.95
2024-03-07T17:34:16.535Z,7.93
2024-03-07T17:36:45.338Z,7.91
2024-03-07T17:39:16.261Z,7.92
2024-03-07T17:41:45.180Z,7.94
2024-03-07T17:44:18.301Z,7.90
2024-03-07T17:46:51.108Z,7.87
2024-03-07T17:49:25.198Z,7.89
2024-03-07T17:51:54.775Z,7.89
2024-03-07T17:54:24.671Z,7.87
2024-03-07T17:56:54.913Z,7.88
2024-03-07T17:59:23.241Z,7.89
2024-03-07T18:01:51.893Z,7.90
2024-03-07T18:04:21.341Z,7.89
2024-03-07T18:06:49.711Z,7.88
2024-03-07T18:09:29.300Z,7.87
2024-03-07T18:12:00.370Z,7.96
2024-03-07T18:14:34.272Z,7.97
2024-03-07T18:17:05.569Z,7.93
2024-03-07T18:19:37.508Z,7.92
2024-03-07T18:22:07.869Z,7.88
2024-03-07T18:24:36.445Z,7.84
2024-03-07T18:27:15.942Z,7.81
2024-03-07T18:29:44.070Z,7.80
2024-03-07T18:32:12.372Z,7.82
2024-03-07T18:34:40.557Z,7.81
2024-03-07T18:37:14.773Z,7.82
2024-03-07T18:39:43.342Z,7.80
2024-03-07T18:42:12.010Z,7.78
2024-03-07T18:44:40.196Z,7.78
2024-03-07T18:47:08.490Z,7.81
2024-03-07T18:49:37.172Z,7.82
2024-03-07T18:52:08.267Z,7.78
2024-03-07T18:54:36.445Z,7.77
2024-03-07T18:57:11.137Z,7.77
2024-03-07T18:59:39.576Z,7.73
2024-03-07T19:02:14.480Z,7.72
2024-03-07T19:04:45.184Z,7.71
2024-03-07T19:07:13.654Z,7.71
2024-03-07T19:09:41.918Z,7.74
2024-03-07T19:12:11.584Z,7.75
2024-03-07T19:14:40.785Z,7.73
2024-03-07T19:17:09.910Z,7.73
2024-03-07T19:19:38.323Z,7.71
2024-03-07T19:22:06.569Z,7.70
2024-03-07T19:24:34.905Z,7.71
2024-03-07T19:27:03.522Z,7.69
2024-03-07T19:29:32.607Z,7.67
2024-03-07T19:32:04.040Z,7.68
2024-03-07T19:34:34.060Z,7.63
2024-03-07T19:37:02.342Z,7.58
2024-03-07T19:39:30.395Z,7.58
2024-03-07T19:42:05.122Z,7.59
2024-03-07T19:44:45.489Z,7.58
2024-03-07T19:47:14.722Z,7.56
2024-03-07T19:49:43.048Z,7.57
2024-03-07T19:52:11.547Z,7.60
2024-03-07T19:54:40.345Z,7.59
2024-03-07T19:57:12.557Z,7.58
2024-03-07T19:59:40.992Z,7.59
2024-03-07T20:02:09.156Z,7.60
2024-03-07T20:04:37.526Z,7.63
2024-03-07T20:07:05.866Z,7.62
2024-03-07T20:09:37.061Z,7.63
2024-03-07T20:12:07.380Z,7.62
2024-03-07T20:14:35.975Z,7.60
2024-03-07T20:17:04.290Z,7.59
2024-03-07T20:19:35.157Z,7.60
2024-03-07T20:22:03.241Z,7.60
2024-03-07T20:24:31.910Z,7.60
2024-03-07T20:27:01.492Z,7.61
2024-03-07T20:29:30.454Z,7.61
2024-03-07T20:32:01.252Z,7.64
2024-03-07T20:34:30.225Z,7.63
2024-03-07T20:36:59.919Z,7.61
2024-03-07T20:39:28.329Z,7.61
2024-03-07T20:42:00.745Z,7.63
2024-03-07T20:44:28.952Z,7.64
2024-03-07T20:46:57.868Z,7.65
2024-03-07T20:49:26.157Z,7.65
2024-03-07T20:51:56.282Z,7.63
2024-03-07T20:54:24.894Z,7.63
2024-03-07T20:56:56.030Z,7.64
2024-03-07T20:59:26.610Z,7.67
2024-03-07T21:01:54.856Z,7.64
2024-03-07T21:04:24.839Z,7.60
2024-03-07T21:06:53.702Z,7.56
2024-03-07T21:09:25.165Z,7.52
2024-03-07T21:11:54.266Z,7.50
2024-03-07T21:14:22.952Z,7.49
2024-03-07T21:16:51.946Z,7.51
2024-03-07T21:19:20.092Z,7.49
2024-03-07T21:21:48.185Z,7.45
2024-03-07T21:24:17.169Z,7.45
2024-03-07T21:26:45.328Z,7.46
2024-03-07T21:29:14.313Z,7.44
2024-03-07T21:31:42.544Z,7.43
2024-03-07T21:34:12.129Z,7.41
2024-03-07T21:36:44.959Z,7.40
2024-03-07T21:39:13.387Z,7.41
2024-03-07T21:41:41.785Z,7.44
2024-03-07T21:44:10.303Z,7.43
2024-03-07T21:46:42.494Z,7.41
2024-03-07T21:49:11.532Z,7.39
2024-03-07T21:51:39.781Z,7.39
2024-03-07T21:54:11.748Z,7.39
2024-03-07T21:56:40.075Z,7.39
2024-03-07T21:59:08.182Z,7.41
2024-03-07T22:01:37.934Z,7.44
2024-03-07T22:04:06.305Z,7.45
2024-03-07T22:06:34.791Z,7.46
2024-03-07T22:09:03.973Z,7.44
2024-03-07T22:11:33.135Z,7.44
2024-03-07T22:14:01.990Z,7.42
2024-03-07T22:16:30.518Z,7.38
2024-03-07T22:19:00.003Z,7.38
2024-03-07T22:21:29.435Z,7.38
2024-03-07T22:23:57.742Z,7.38
2024-03-07T22:26:28.874Z,7.38
2024-03-07T22:28:57.244Z,7.36
2024-03-07T22:31:25.298Z,7.32
2024-03-07T22:33:53.371Z,7.32
2024-03-07T22:36:21.922Z,7.32
2024-03-07T22:38:50.052Z,7.32
2024-03-07T22:41:18.422Z,7.32
2024-03-07T22:43:46.581Z,7.34
2024-03-07T22:46:14.732Z,7.31
2024-03-07T22:48:43.748Z,7.31
2024-03-07T22:51:12.721Z,7.28
2024-03-07T22:53:41.465Z,7.27
2024-03-07T22:56:12.995Z,7.22
2024-03-07T22:58:41.157Z,7.21
2024-03-07T23:01:09.260Z,7.20
2024-03-07T23:03:39.276Z,7.18
2024-03-07T23:06:08.026Z,7.18
2024-03-07T23:08:37.822Z,7.19
2024-03-07T23:11:06.096Z,7.17
2024-03-07T23:13:34.412Z,7.16
2024-03-07T23:16:02.461Z,7.14
2024-03-07T23:18:30.864Z,7.09
2024-03-07T23:21:00.779Z,7.08
2024-03-07T23:23:29.246Z,7.06
2024-03-07T23:25:57.434Z,7.04
2024-03-07T23:28:27.237Z,7.02
2024-03-07T23:30:55.285Z,7.00
2024-03-07T23:33:23.575Z,7.02
2024-03-07T23:35:51.675Z,7.03
2024-03-07T23:38:19.875Z,6.99
2024-03-07T23:40:48.415Z,6.98
2024-03-07T23:43:18.999Z,6.99
2024-03-07T23:45:48.317Z,6.98
2024-03-07T23:48:17.826Z,6.97
2024-03-07T23:50:46.126Z,6.97
2024-03-07T23:53:14.379Z,6.94
2024-03-07T23:55:42.732Z,6.93
2024-03-07T23:58:10.923Z,6.91
